Time;durP1;ratioP1;P1;durP2;ratioP2;P2;SDS_P1;SDS_P2;PMS_P1;PMS_P2;Temp;Humidity;BMP_temperature;BMP_pressure;BME280_temperature;BME280_humidity;BME280_pressure;Samples;Min_cycle;Max_cycle;Signal;HPM_P1;HPM_P2
2022/08/12 00:44:37;;;;;;;6.80;3.95;;;;;;;20.84;56.91;101966.19;4888977;28;120115;-78
2022/08/12 00:47:03;;;;;;;6.13;4.13;;;;;;;20.94;57.23;101977.19;4853642;28;121400;-78
2022/08/12 00:49:29;;;;;;;9.03;4.60;;;;;;;20.98;58.31;101972.91;4872790;28;122853;-78
2022/08/12 00:52:10;;;;;;;7.03;3.80;;;;;;;21.05;56.76;101968.91;4893566;28;120058;-78
2022/08/12 00:54:39;;;;;;;7.40;3.80;;;;;;;21.10;56.40;101968.22;4891306;28;120367;-79
2022/08/12 00:57:14;;;;;;;6.57;3.60;;;;;;;21.13;56.59;101978.38;4874978;28;121341;-78
2022/08/12 00:59:49;;;;;;;7.80;3.70;;;;;;;21.14;56.52;101977.13;4890533;28;120183;-78
2022/08/12 01:02:25;;;;;;;5.00;3.60;;;;;;;21.14;56.68;101977.13;4871293;28;123463;-78
2022/08/12 01:13:29;;;;;;;8.65;4.30;;;;;;;21.07;56.74;101972.75;4885272;28;121346;-79
2022/08/12 01:15:57;;;;;;;6.97;3.95;;;;;;;21.00;56.71;101967.59;4905572;28;119721;-78
2022/08/12 01:18:26;;;;;;;7.40;4.07;;;;;;;21.00;56.71;101970.41;4888670;28;120694;-78
2022/08/12 01:20:52;;;;;;;8.00;4.25;;;;;;;21.06;57.26;101979.59;4891792;28;120015;-78
2022/08/12 01:23:49;;;;;;;8.33;4.10;;;;;;;21.02;56.98;101967.88;4871816;28;120246;-78
2022/08/12 01:26:18;;;;;;;11.23;5.35;;;;;;;21.03;57.40;101972.19;4902823;28;119668;-78
2022/08/12 01:28:47;;;;;;;9.40;5.60;;;;;;;21.06;57.75;101976.81;4873158;28;120484;-78
2022/08/12 01:31:15;;;;;;;7.55;5.28;;;;;;;21.10;57.64;101976.59;4888012;28;122493;-78
2022/08/12 01:34:03;;;;;;;7.97;4.43;;;;;;;21.08;57.25;101968.72;4887467;28;119869;-78
2022/08/12 01:36:38;;;;;;;8.50;6.07;;;;;;;21.15;58.10;101975.88;4889161;28;122397;-78
2022/08/12 01:39:04;;;;;;;8.27;5.20;;;;;;;21.16;57.69;101974.63;4889184;28;121600;-78
2022/08/12 01:41:36;;;;;;;7.18;4.65;;;;;;;21.15;56.91;101973.09;4888798;28;120296;-78
2022/08/12 01:44:02;;;;;;;6.97;4.70;;;;;;;21.07;56.94;101969.97;4890084;28;121915;-78
2022/08/12 01:46:59;;;;;;;8.68;5.20;;;;;;;21.06;56.82;101971.22;4891772;28;120707;-78
2022/08/12 01:50:04;;;;;;;7.60;5.57;;;;;;;21.05;57.21;101975.25;4888063;28;120245;-78
2022/08/12 01:52:42;;;;;;;7.20;5.33;;;;;;;21.02;57.61;101975.47;4888472;28;120068;-78
2022/08/12 01:55:10;;;;;;;8.70;6.18;;;;;;;21.00;57.78;101972.41;4889981;28;120860;-78
2022/08/12 01:57:43;;;;;;;10.20;6.00;;;;;;;20.95;57.48;101973.13;4870459;28;121718;-78
2022/08/12 02:00:17;;;;;;;6.95;5.38;;;;;;;20.90;57.24;101971.81;4886579;28;121780;-78
2022/08/12 02:02:55;;;;;;;7.93;5.38;;;;;;;20.92;57.13;101990.84;4887276;28;119767;-78
2022/08/12 02:12:37;;;;;;;9.10;6.40;;;;;;;20.76;57.99;101983.84;4889857;28;120057;-78
2022/08/12 02:15:31;;;;;;;9.60;6.50;;;;;;;20.69;57.84;101978.69;4884350;28;121893;-78
2022/08/12 02:18:09;;;;;;;11.00;6.88;;;;;;;20.65;57.92;101984.47;4901724;28;121109;-78
2022/08/12 02:20:52;;;;;;;9.87;6.70;;;;;;;20.59;58.04;101983.66;4885496;28;121793;-79
2022/08/12 02:23:22;;;;;;;9.13;6.67;;;;;;;20.58;58.65;101979.31;4869455;28;122324;-78
2022/08/12 02:25:49;;;;;;;10.27;7.00;;;;;;;20.55;58.84;101977.50;4868241;28;120152;-80
2022/08/12 02:28:15;;;;;;;10.70;6.93;;;;;;;20.56;59.29;101979.03;4888415;28;121877;-78
2022/08/12 02:30:41;;;;;;;9.80;6.67;;;;;;;20.52;58.92;101968.09;4852016;28;123060;-78
2022/08/12 02:33:06;;;;;;;9.20;6.50;;;;;;;20.58;58.70;101970.94;4907258;28;120022;-78
2022/08/12 02:35:34;;;;;;;8.37;6.70;;;;;;;20.54;58.72;101971.16;4886865;28;122971;-78
2022/08/12 02:38:05;;;;;;;9.93;6.07;;;;;;;20.56;59.65;101970.69;4886186;28;120497;-78
2022/08/12 02:40:35;;;;;;;10.68;7.18;;;;;;;20.57;60.13;101958.28;4887894;28;121897;-78
2022/08/12 02:43:18;;;;;;;8.15;6.05;;;;;;;20.63;59.11;101964.69;4884903;28;123520;-78
2022/08/12 02:46:05;;;;;;;8.38;5.80;;;;;;;20.62;58.92;101960.38;4903699;28;119848;-77
2022/08/12 02:48:40;;;;;;;9.45;5.78;;;;;;;20.63;58.87;101961.91;4885394;28;120677;-78
2022/08/12 02:51:08;;;;;;;7.82;5.55;;;;;;;20.61;58.54;101964.41;4906418;28;120092;-78
2022/08/12 02:53:36;;;;;;;7.65;5.57;;;;;;;20.60;58.67;101956.56;4875484;28;120091;-78
2022/08/12 02:56:04;;;;;;;8.20;5.60;;;;;;;20.53;58.81;101950.13;4870717;28;120061;-78
2022/08/12 02:58:34;;;;;;;8.60;6.63;;;;;;;20.56;59.11;101956.75;4868191;28;120626;-78
2022/08/12 03:01:04;;;;;;;8.40;6.00;;;;;;;20.56;59.08;101956.75;4890058;28;120141;-78
2022/08/12 03:03:32;;;;;;;8.80;6.60;;;;;;;20.54;59.64;101948.88;4868722;28;123276;-78
2022/08/12 03:06:11;;;;;;;8.93;6.13;;;;;;;20.56;59.56;101953.19;4903459;28;120203;-78
2022/08/12 03:08:42;;;;;;;7.85;5.72;;;;;;;20.52;59.29;101947.81;4888350;28;120521;-78
2022/08/12 03:12:06;;;;;;;7.63;5.82;;;;;;;20.53;59.39;101943.78;4887214;28;120977;-78
2022/08/12 03:14:34;;;;;;;7.78;5.93;;;;;;;20.46;59.35;101941.44;4888880;28;119870;-78
2022/08/12 03:17:16;;;;;;;9.73;6.90;;;;;;;20.52;60.00;101950.63;4859602;28;121271;-78
2022/08/12 03:19:43;;;;;;;11.52;8.45;;;;;;;20.53;61.16;101935.44;4889039;28;119874;-78
2022/08/12 03:22:14;;;;;;;9.55;6.50;;;;;;;20.52;60.55;101931.09;4885493;28;123150;-79
2022/08/12 03:24:42;;;;;;;8.68;6.88;;;;;;;20.60;60.29;101935.00;4888528;28;122834;-78
2022/08/12 03:27:12;;;;;;;11.20;7.37;;;;;;;20.60;60.35;101937.81;4864648;28;120330;-78
2022/08/12 03:29:58;;;;;;;10.93;7.45;;;;;;;20.61;59.85;101942.13;4885416;28;120273;-78
2022/08/12 03:32:24;;;;;;;13.55;9.43;;;;;;;20.63;60.86;101947.97;4897495;28;121149;-78
2022/08/12 03:34:54;;;;;;;11.50;8.57;;;;;;;20.62;60.23;101935.28;4885862;28;120102;-78
2022/08/12 03:37:20;;;;;;;11.85;8.73;;;;;;;20.61;59.76;101939.34;4902475;28;120466;-78
2022/08/12 03:39:46;;;;;;;13.17;9.30;;;;;;;20.61;59.56;101939.34;4890697;28;123033;-78
2022/08/12 03:42:20;;;;;;;15.80;11.27;;;;;;;20.63;60.26;101938.84;4870057;28;122294;-78
2022/08/12 04:01:51;;;;;;;30.05;20.63;;;;;;;20.99;64.56;101943.00;4901388;28;121737;-78
2022/08/12 04:04:21;;;;;;;27.75;19.42;;;;;;;21.04;64.87;101947.84;4872809;28;120168;-79
2022/08/12 04:06:47;;;;;;;28.80;20.20;;;;;;;21.04;64.88;101945.06;4868869;28;122480;-78
2022/08/12 04:09:13;;;;;;;28.95;19.73;;;;;;;21.15;64.05;101939.59;4885722;28;121745;-78
2022/08/12 04:14:26;;;;;;;23.13;15.07;;;;;;;21.23;62.12;101946.25;4888324;28;120169;-78
2022/08/12 04:16:51;;;;;;;23.05;14.52;;;;;;;21.22;60.77;101947.53;4886757;28;120286;-78
2022/08/12 04:19:18;;;;;;;21.27;14.13;;;;;;;21.21;60.09;101948.00;4902135;28;120942;-77
2022/08/12 04:21:45;;;;;;;21.15;14.75;;;;;;;21.18;60.44;101946.22;4884436;28;123354;-77
2022/08/12 04:24:11;;;;;;;22.30;12.68;;;;;;;21.13;60.16;101950.50;4869002;28;120092;-77
2022/08/12 04:26:40;;;;;;;17.85;11.90;;;;;;;21.05;60.37;101938.22;4874951;28;122387;-78
2022/08/12 04:29:09;;;;;;;18.63;13.65;;;;;;;21.07;60.55;101944.88;4887421;28;119978;-78
2022/08/12 04:31:48;;;;;;;18.97;12.97;;;;;;;21.06;60.69;101937.00;4888038;28;120526;-78
2022/08/12 04:34:14;;;;;;;19.08;12.82;;;;;;;21.12;60.59;101948.97;4870666;28;123928;-78
2022/08/12 04:36:41;;;;;;;19.02;12.90;;;;;;;21.11;60.60;101941.84;4888513;28;119999;-78
2022/08/12 04:39:09;;;;;;;17.67;12.00;;;;;;;21.12;60.01;101946.94;4881533;28;122033;-78
2022/08/12 04:41:37;;;;;;;17.67;12.32;;;;;;;21.07;60.26;101944.09;4887464;28;120295;-78
2022/08/12 04:44:04;;;;;;;17.10;12.35;;;;;;;21.07;60.52;101944.88;4868239;28;119839;-78
2022/08/12 04:46:29;;;;;;;18.30;11.98;;;;;;;21.12;60.63;101949.72;4900597;28;120069;-78
2022/08/12 04:48:56;;;;;;;22.17;14.77;;;;;;;21.14;61.43;101952.78;4860403;28;122901;-78
2022/08/12 04:51:22;;;;;;;32.25;21.63;;;;;;;21.22;64.53;101963.50;4889293;28;122519;-78
2022/08/12 04:53:49;;;;;;;29.13;20.07;;;;;;;21.29;64.61;101952.66;4890574;28;120511;-78
2022/08/12 04:56:16;;;;;;;27.58;18.60;;;;;;;21.37;64.33;101955.78;4891751;28;119680;-78
2022/08/12 04:58:42;;;;;;;26.05;17.98;;;;;;;21.43;64.08;101957.38;4890609;28;122370;-78
2022/08/12 05:01:09;;;;;;;28.13;18.50;;;;;;;21.54;64.27;101955.94;4874075;28;121357;-79
2022/08/12 05:03:36;;;;;;;27.27;18.70;;;;;;;21.60;64.40;101951.91;4873400;28;120415;-78
2022/08/12 05:06:03;;;;;;;26.30;18.07;;;;;;;21.65;64.56;101939.25;4890715;28;122074;-78
2022/08/12 05:08:29;;;;;;;27.23;18.10;;;;;;;21.73;64.64;101945.88;4877950;28;123052;-79
2022/08/12 05:10:55;;;;;;;24.05;17.10;;;;;;;21.86;64.38;101957.41;4890119;28;120014;-78
2022/08/12 05:13:30;;;;;;;22.98;16.38;;;;;;;21.94;64.40;101955.66;4890534;28;120288;-77
2022/08/12 05:15:56;;;;;;;21.90;15.77;;;;;;;21.99;64.04;101943.75;4873594;28;120053;-77
2022/08/12 05:18:21;;;;;;;22.00;15.35;;;;;;;22.15;63.92;101955.56;4887858;28;120095;-77
2022/08/12 05:20:47;;;;;;;19.42;14.80;;;;;;;22.21;63.70;101954.31;4888937;28;122404;-77
2022/08/12 05:23:16;;;;;;;19.98;14.05;;;;;;;22.26;63.63;101947.22;4887237;28;119972;-78
2022/08/12 05:25:44;;;;;;;20.48;13.50;;;;;;;22.33;63.85;101952.34;4872050;28;121911;-77
2022/08/12 05:28:11;;;;;;;17.48;13.25;;;;;;;22.40;64.42;101945.50;4887885;28;120671;-78
2022/08/12 05:30:37;;;;;;;16.53;11.90;;;;;;;22.49;64.49;101948.84;4904530;28;120394;-78
2022/08/12 05:33:04;;;;;;;15.27;11.50;;;;;;;22.61;64.63;101947.59;4903272;28;120556;-77
2022/08/12 05:35:35;;;;;;;16.55;11.00;;;;;;;22.76;64.27;101957.81;4886270;28;120953;-78
2022/08/12 05:40:50;;;;;;;14.83;9.80;;;;;;;22.88;63.95;101945.38;4891750;28;121800;-77
2022/08/12 05:43:34;;;;;;;15.70;9.93;;;;;;;22.98;64.00;101946.69;4887855;28;120205;-78
2022/08/12 05:45:59;;;;;;;16.38;9.80;;;;;;;23.02;63.63;101936.00;4906104;28;120717;-78
2022/08/12 05:48:25;;;;;;;13.68;9.10;;;;;;;23.13;63.65;101941.59;4886412;28;123377;-78
2022/08/12 05:50:55;;;;;;;14.40;9.13;;;;;;;23.22;63.77;101938.56;4890453;28;120932;-78
2022/08/12 05:53:21;;;;;;;13.15;7.97;;;;;;;23.33;63.22;101937.03;4907791;28;120871;-78
2022/08/12 05:55:46;;;;;;;12.68;7.57;;;;;;;23.48;63.09;101946.69;4873641;28;121157;-77
2022/08/12 05:58:12;;;;;;;10.63;7.60;;;;;;;23.53;63.54;101942.34;4905071;28;121489;-77
2022/08/12 06:00:38;;;;;;;9.73;7.07;;;;;;;23.70;63.54;101957.13;4887275;28;124797;-77
2022/08/12 06:03:04;;;;;;;8.53;6.13;;;;;;;23.76;62.55;101941.06;4853636;28;121012;-77
2022/08/12 06:05:35;;;;;;;9.43;6.72;;;;;;;23.91;63.44;101942.81;4889257;28;122383;-77
2022/08/12 06:08:07;;;;;;;8.63;6.10;;;;;;;23.89;62.37;101938.47;4887129;28;123552;-77
2022/08/12 06:10:34;;;;;;;9.68;6.32;;;;;;;24.04;62.34;101943.03;4871987;28;122104;-78
2022/08/12 06:13:01;;;;;;;9.93;6.25;;;;;;;24.06;62.88;101946.06;4887336;28;122587;-77
2022/08/12 06:15:27;;;;;;;9.57;6.00;;;;;;;24.16;62.99;101952.94;4873566;28;121712;-77
2022/08/12 06:17:53;;;;;;;11.18;5.50;;;;;;;24.22;62.51;101947.31;4886483;28;121964;-78
2022/08/12 06:20:18;;;;;;;8.60;5.97;;;;;;;24.32;62.30;101954.91;4886827;28;122024;-78
2022/08/12 06:22:49;;;;;;;9.18;5.63;;;;;;;24.36;61.84;101952.59;4885379;28;122139;-78
2022/08/12 06:25:17;;;;;;;8.60;4.78;;;;;;;24.39;61.40;101937.56;4884811;28;122917;-78
2022/08/12 06:27:47;;;;;;;8.57;4.78;;;;;;;24.48;61.34;101937.25;4851773;28;125037;-78
2022/08/12 06:30:17;;;;;;;5.63;4.23;;;;;;;24.51;61.59;101943.88;4871131;28;122081;-78
2022/08/12 06:32:43;;;;;;;6.47;3.90;;;;;;;24.61;60.47;101947.16;4886741;28;124890;-78
2022/08/12 06:35:10;;;;;;;7.33;3.67;;;;;;;24.69;59.90;101950.91;4868536;28;125363;-78
2022/08/12 06:37:40;;;;;;;6.07;3.35;;;;;;;24.75;58.59;101948.84;4873144;28;121917;-78
2022/08/12 06:40:09;;;;;;;4.30;3.20;;;;;;;24.75;58.39;101940.41;4902336;28;122340;-78
2022/08/12 06:42:54;;;;;;;4.50;3.00;;;;;;;24.86;58.47;101942.41;4895354;28;121852;-77
2022/08/12 06:45:21;;;;;;;5.30;3.30;;;;;;;24.88;57.26;101932.19;4901575;28;122299;-78
2022/08/12 06:47:47;;;;;;;5.22;2.97;;;;;;;24.97;56.72;101934.66;4903020;28;122157;-78
2022/08/12 06:50:17;;;;;;;4.78;2.90;;;;;;;25.03;56.95;101935.38;4887335;28;124572;-77
2022/08/12 06:52:44;;;;;;;4.93;2.65;;;;;;;25.11;56.82;101940.47;4861587;28;124831;-77
2022/08/12 06:55:19;;;;;;;5.35;3.10;;;;;;;25.17;56.95;101933.50;4884859;28;122329;-77
2022/08/12 06:57:55;;;;;;;2.87;2.40;;;;;;;25.25;56.74;101942.09;4901547;28;122687;-77
2022/08/12 07:00:25;;;;;;;7.57;2.92;;;;;;;25.24;56.55;101932.16;4891249;28;122578;-78
2022/08/12 07:02:56;;;;;;;3.80;2.47;;;;;;;25.30;55.02;101947.66;4879414;28;122577;-78
2022/08/12 07:05:25;;;;;;;3.90;2.35;;;;;;;25.32;55.18;101938.75;4886904;28;122575;-78
2022/08/12 07:07:54;;;;;;;3.60;2.60;;;;;;;25.39;54.34;101943.78;4880771;28;122753;-78
2022/08/12 07:10:24;;;;;;;5.30;2.45;;;;;;;25.44;54.12;101934.53;4885840;28;123042;-78
2022/08/12 07:12:53;;;;;;;3.35;2.22;;;;;;;25.55;53.93;101944.91;4900196;28;122277;-78
2022/08/12 07:15:23;;;;;;;6.25;2.75;;;;;;;25.54;53.98;101929.31;4887741;28;122751;-77
2022/08/12 07:17:57;;;;;;;5.00;2.63;;;;;;;25.66;53.60;101942.75;4887961;28;122409;-78
2022/08/12 07:20:23;;;;;;;4.97;2.40;;;;;;;25.70;53.33;101945.28;4888545;28;122538;-78
2022/08/12 07:22:48;;;;;;;4.13;2.30;;;;;;;25.75;53.48;101936.03;4885217;28;122362;-78
2022/08/12 07:31:40;;;;;;;3.72;2.50;;;;;;;25.86;52.07;101935.16;4891432;28;123143;-77
2022/08/12 07:34:09;;;;;;;3.45;1.95;;;;;;;25.97;49.77;101946.28;4876486;28;125858;-77
2022/08/12 07:36:34;;;;;;;4.43;2.10;;;;;;;26.06;49.90;101950.78;4880552;28;122634;-77
2022/08/12 07:39:01;;;;;;;3.73;2.00;;;;;;;26.13;50.48;101950.94;4881697;28;122350;-77
2022/08/12 07:41:30;;;;;;;4.00;1.80;;;;;;;26.22;49.67;101949.81;4881231;28;122620;-77
2022/08/12 07:44:01;;;;;;;2.55;2.00;;;;;;;26.27;48.37;101951.81;4886127;28;122379;-78
2022/08/12 07:46:30;;;;;;;3.03;1.80;;;;;;;26.35;47.94;101941.50;4862978;28;124412;-77
2022/08/12 07:49:01;;;;;;;2.47;1.85;;;;;;;26.40;47.46;101949.09;4849091;28;125585;-78
2022/08/12 07:51:28;;;;;;;2.37;1.80;;;;;;;26.47;46.89;101944.91;4881773;28;122533;-78
2022/08/12 07:53:56;;;;;;;2.35;1.70;;;;;;;26.55;47.43;101952.22;4865011;28;122892;-78
2022/08/12 07:56:26;;;;;;;2.88;1.70;;;;;;;26.70;46.96;101954.56;4896930;28;122864;-79
2022/08/12 07:58:52;;;;;;;2.40;1.98;;;;;;;26.90;46.33;101948.38;4866619;28;122405;-79
2022/08/12 08:01:20;;;;;;;2.87;1.90;;;;;;;27.12;46.35;101944.47;4882524;28;122323;-79
2022/08/12 08:06:34;;;;;;;2.83;1.70;;;;;;;27.98;44.70;101954.47;4901588;28;122904;-78
2022/08/12 08:09:02;;;;;;;3.17;1.70;;;;;;;28.35;44.31;101958.34;4876379;28;126423;-79
2022/08/12 08:14:13;;;;;;;1.90;1.50;;;;;;;28.81;40.79;101968.09;4879364;28;122537;-79
2022/08/12 08:16:40;;;;;;;3.72;1.70;;;;;;;28.94;39.15;101962.44;4866809;28;126947;-79
2022/08/12 08:19:08;;;;;;;4.93;1.55;;;;;;;29.02;38.68;101962.50;4899264;28;122294;-80
2022/08/12 08:21:34;;;;;;;4.73;1.87;;;;;;;29.12;38.95;101960.72;4880666;28;122514;-79
2022/08/12 08:24:15;;;;;;;3.30;1.60;;;;;;;29.32;39.81;101968.41;4900168;28;122828;-79
2022/08/12 08:26:48;;;;;;;2.50;1.30;;;;;;;29.50;38.29;101963.13;4881429;28;122402;-79
2022/08/12 08:29:15;;;;;;;3.13;1.63;;;;;;;29.64;37.82;101970.19;4905903;28;123039;-79
2022/08/12 08:31:45;;;;;;;2.30;1.52;;;;;;;29.72;37.34;101964.59;4886298;28;122332;-80
2022/08/12 08:34:12;;;;;;;2.80;1.50;;;;;;;29.79;36.77;101966.69;4869791;28;122607;-79
2022/08/12 08:36:41;;;;;;;2.10;1.40;;;;;;;29.81;37.44;101964.84;4881978;28;122560;-79
2022/08/12 08:39:07;;;;;;;3.22;1.55;;;;;;;29.91;39.13;101960.19;4884029;28;122587;-78
2022/08/12 08:44:17;;;;;;;2.20;1.50;;;;;;;30.06;37.65;101970.88;4886093;28;124137;-78
2022/08/12 08:46:43;;;;;;;2.00;1.48;;;;;;;30.04;36.74;101962.16;4867838;28;122181;-78
2022/08/12 08:49:10;;;;;;;2.40;1.60;;;;;;;30.14;37.35;101970.91;4866902;28;124461;-79
2022/08/12 08:51:37;;;;;;;2.80;1.60;;;;;;;30.06;34.63;101958.78;4887755;28;123156;-78
2022/08/12 08:54:05;;;;;;;2.15;1.40;;;;;;;29.98;35.44;101961.53;4899575;28;122206;-79
2022/08/12 08:56:32;;;;;;;3.00;1.50;;;;;;;29.80;34.89;101962.56;4883410;28;122858;-79
2022/08/12 08:59:18;;;;;;;2.10;1.60;;;;;;;29.81;36.53;101964.84;4886719;28;122414;-79
2022/08/12 09:01:45;;;;;;;1.83;1.27;;;;;;;29.84;36.05;101943.94;4886013;28;122876;-79
2022/08/12 09:04:11;;;;;;;1.83;1.30;;;;;;;29.94;34.82;101959.06;4901791;28;123110;-79
2022/08/12 09:06:40;;;;;;;3.08;1.33;;;;;;;29.94;34.81;101959.06;4881192;28;122802;-79
2022/08/12 09:09:08;;;;;;;2.20;1.42;;;;;;;30.02;36.23;101955.50;4879643;28;122776;-79
2022/08/12 09:14:18;;;;;;;3.08;1.60;;;;;;;30.18;32.83;101957.13;4905471;28;122884;-79
2022/08/12 09:16:55;;;;;;;1.83;1.40;;;;;;;30.03;33.90;101945.72;4885043;28;122670;-79
2022/08/12 09:19:20;;;;;;;4.53;1.45;;;;;;;30.00;33.69;101949.66;4882572;28;122680;-78
2022/08/12 09:21:47;;;;;;;2.57;1.60;;;;;;;29.98;33.62;101947.38;4886389;28;124438;-79
2022/08/12 09:24:30;;;;;;;2.42;1.48;;;;;;;29.99;34.01;101948.91;4884470;28;122487;-79
2022/08/12 09:26:59;;;;;;;2.55;1.38;;;;;;;29.96;33.80;101950.03;4884604;28;122932;-79
2022/08/12 09:29:25;;;;;;;3.73;1.60;;;;;;;29.98;34.42;101952.28;4899881;28;122663;-79
2022/08/12 09:31:53;;;;;;;3.75;1.63;;;;;;;30.01;33.07;101949.09;4869032;28;126252;-79
2022/08/12 09:34:19;;;;;;;3.40;1.60;;;;;;;30.13;33.29;101952.41;4868070;28;123689;-79
2022/08/12 09:36:45;;;;;;;2.50;1.50;;;;;;;30.15;31.73;101949.78;4899313;28;122900;-79
2022/08/12 09:39:12;;;;;;;4.53;1.60;;;;;;;30.04;31.89;101942.34;4882212;28;123876;-79
2022/08/12 09:41:39;;;;;;;2.13;1.38;;;;;;;30.07;32.55;101955.41;4883634;28;122501;-79
2022/08/12 09:46:49;;;;;;;2.47;1.40;;;;;;;30.17;33.81;101953.56;4885982;28;123542;-79
2022/08/12 09:49:15;;;;;;;2.10;1.60;;;;;;;30.17;32.77;101938.66;4886208;28;122342;-79
2022/08/12 09:51:42;;;;;;;3.30;1.60;;;;;;;30.15;33.37;101955.44;4885538;28;125765;-79
2022/08/12 09:54:11;;;;;;;2.00;1.30;;;;;;;30.09;32.66;101949.94;4885009;28;125178;-79
2022/08/12 09:56:41;;;;;;;2.38;1.42;;;;;;;30.07;35.07;101951.81;4891920;28;122825;-80
2022/08/12 09:59:10;;;;;;;3.70;1.40;;;;;;;30.07;32.83;101934.84;4886010;28;122192;-79
2022/08/12 10:01:37;;;;;;;2.60;1.50;;;;;;;30.23;32.79;101947.72;4882226;28;122823;-79
2022/08/12 10:04:10;;;;;;;2.03;1.58;;;;;;;30.36;33.00;101941.94;4902527;28;122612;-80
2022/08/12 10:06:36;;;;;;;2.00;1.40;;;;;;;30.45;33.45;101932.91;4884476;28;122753;-79
2022/08/12 10:09:06;;;;;;;1.83;1.20;;;;;;;30.55;33.38;101925.38;4903231;28;122513;-79
2022/08/12 10:14:17;;;;;;;2.37;1.20;;;;;;;30.64;30.49;101926.19;4905838;28;123083;-79
2022/08/12 10:16:43;;;;;;;2.57;1.40;;;;;;;30.64;31.59;101929.75;4887400;28;122575;-79
2022/08/12 10:19:50;;;;;;;1.60;1.27;;;;;;;30.75;31.26;101920.13;4875254;28;122556;-80
2022/08/12 10:22:15;;;;;;;2.60;1.20;;;;;;;30.77;30.86;101911.88;4885821;28;122256;-79
2022/08/12 10:24:41;;;;;;;2.10;1.00;;;;;;;30.74;30.38;101916.56;4884308;28;123872;-79
2022/08/12 10:29:51;;;;;;;2.60;1.30;;;;;;;30.73;31.25;101900.13;4863659;28;125028;-80
2022/08/12 10:32:20;;;;;;;1.57;1.10;;;;;;;30.76;30.53;101902.63;4835449;28;125655;-79
2022/08/12 10:34:49;;;;;;;2.77;1.33;;;;;;;30.72;31.69;101892.94;4866015;28;122853;-79
2022/08/12 10:37:19;;;;;;;2.08;1.20;;;;;;;30.78;31.84;101896.38;4850203;28;123659;-79
2022/08/12 10:39:50;;;;;;;3.15;1.30;;;;;;;30.79;30.61;101897.88;4880990;28;122597;-79
2022/08/12 10:45:06;;;;;;;1.93;1.20;;;;;;;30.68;30.37;101892.56;4865661;28;125115;-79
2022/08/12 10:47:33;;;;;;;2.28;1.10;;;;;;;30.61;29.96;101882.00;4865522;28;122845;-79
2022/08/12 10:49:59;;;;;;;1.55;1.20;;;;;;;30.63;30.96;101885.78;4868120;28;123638;-80
2022/08/12 10:52:26;;;;;;;1.80;1.10;;;;;;;30.67;30.90;101885.41;4882679;28;123003;-80
2022/08/12 10:54:54;;;;;;;1.63;1.00;;;;;;;30.60;29.81;101878.38;4865718;28;122719;-79
2022/08/12 10:57:20;;;;;;;2.60;1.13;;;;;;;30.61;29.08;101879.94;4899921;28;122137;-78
2022/08/12 10:59:46;;;;;;;2.90;1.20;;;;;;;30.54;30.15;101870.06;4882834;28;123723;-80
2022/08/12 11:02:13;;;;;;;1.23;1.10;;;;;;;30.58;31.46;101875.38;4881235;28;124282;-79
2022/08/12 11:04:39;;;;;;;3.95;1.23;;;;;;;30.60;30.29;101869.88;4885800;28;122426;-79
2022/08/12 11:07:06;;;;;;;3.55;1.48;;;;;;;30.56;30.49;101863.84;4880055;28;123111;-79
2022/08/12 11:09:33;;;;;;;2.92;1.20;;;;;;;30.51;30.12;101867.59;4882832;28;123442;-79
2022/08/12 11:12:05;;;;;;;1.30;1.00;;;;;;;30.55;29.84;101856.69;4880028;28;122766;-80
2022/08/12 11:14:41;;;;;;;3.27;1.20;;;;;;;30.61;29.90;101867.84;4881002;28;123169;-79
2022/08/12 11:17:25;;;;;;;2.97;1.20;;;;;;;30.62;29.86;101855.19;4894502;28;122286;-79
2022/08/12 11:19:51;;;;;;;2.42;1.30;;;;;;;30.69;29.94;101868.59;4879871;28;125596;-80
2022/08/12 11:22:16;;;;;;;2.50;1.17;;;;;;;30.67;29.42;101857.84;4881755;28;122630;-80
2022/08/12 11:24:42;;;;;;;2.53;1.33;;;;;;;30.71;29.36;101863.13;4881688;28;122627;-80
2022/08/12 11:27:08;;;;;;;2.95;1.33;;;;;;;30.79;29.46;101870.31;4880251;28;123042;-79
2022/08/12 11:29:35;;;;;;;4.22;1.65;;;;;;;30.80;29.06;101862.56;4879735;28;124658;-79
2022/08/12 11:32:01;;;;;;;3.10;1.50;;;;;;;30.81;30.18;101866.91;4864224;28;123038;-79
2022/08/12 11:34:26;;;;;;;3.15;1.40;;;;;;;30.85;29.71;101861.63;4879668;28;123236;-80
2022/08/12 11:36:53;;;;;;;2.80;1.43;;;;;;;30.90;29.91;101859.94;4895261;28;122597;-80
2022/08/12 11:39:19;;;;;;;1.70;1.40;;;;;;;30.88;30.00;101851.25;4880363;28;122682;-80
2022/08/12 11:41:44;;;;;;;3.83;1.60;;;;;;;30.91;28.89;101852.94;4895485;28;122375;-79
2022/08/12 11:44:10;;;;;;;4.10;1.67;;;;;;;30.88;29.83;101849.16;4881226;28;122732;-80
2022/08/12 11:46:37;;;;;;;3.17;1.90;;;;;;;30.92;29.35;101858.03;4882837;28;123125;-79
2022/08/12 11:49:07;;;;;;;4.80;1.88;;;;;;;30.91;29.80;101847.25;4879548;28;122454;-79
2022/08/12 11:51:34;;;;;;;3.27;1.80;;;;;;;30.86;29.99;101848.97;4882279;28;122474;-79
2022/08/12 11:54:00;;;;;;;3.22;1.70;;;;;;;30.88;29.29;101852.00;4881336;28;122835;-80
2022/08/12 11:56:27;;;;;;;1.90;1.70;;;;;;;30.82;29.86;101831.59;4884490;28;122916;-80
2022/08/12 11:58:53;;;;;;;3.08;1.55;;;;;;;30.86;29.46;101840.47;4882079;28;123015;-79
2022/08/12 12:01:22;;;;;;;3.20;1.80;;;;;;;30.84;29.25;101831.78;4883106;28;122703;-79
2022/08/12 12:03:48;;;;;;;2.97;1.63;;;;;;;30.83;29.64;101824.63;4884289;28;123902;-79
2022/08/12 12:06:14;;;;;;;3.40;1.70;;;;;;;30.88;30.57;101820.06;4882893;28;123210;-79
2022/08/12 12:08:40;;;;;;;3.25;1.70;;;;;;;30.95;31.35;101822.13;4885958;28;122788;-79
2022/08/12 12:11:06;;;;;;;4.33;1.90;;;;;;;30.98;29.95;101815.34;4879886;28;125892;-79
2022/08/12 12:13:31;;;;;;;4.50;1.60;;;;;;;31.01;30.38;101829.16;4884370;28;122763;-79
2022/08/12 12:15:57;;;;;;;2.20;1.50;;;;;;;31.05;32.31;101820.25;4899847;28;122929;-78
2022/08/12 12:18:28;;;;;;;4.20;1.80;;;;;;;31.06;33.69;101818.94;4884093;28;123844;-79
2022/08/12 12:20:59;;;;;;;3.20;1.98;;;;;;;31.18;34.35;101824.97;4865547;28;122736;-80
2022/08/12 12:23:25;;;;;;;2.95;1.83;;;;;;;31.24;33.53;101829.13;4882534;28;123100;-79
2022/08/12 12:25:51;;;;;;;4.72;2.00;;;;;;;31.23;33.25;101818.34;4898621;28;122526;-80
2022/08/12 12:28:19;;;;;;;4.80;2.00;;;;;;;31.19;32.87;101813.06;4879844;28;122893;-80
2022/08/12 12:30:48;;;;;;;3.75;1.90;;;;;;;31.20;31.68;101816.66;4885030;28;123445;-79
2022/08/12 12:33:14;;;;;;;4.60;1.90;;;;;;;31.26;32.41;101815.16;4879297;28;123677;-79
2022/08/12 12:35:40;;;;;;;2.30;1.55;;;;;;;31.27;30.71;101822.31;4859815;28;123006;-79
2022/08/12 12:38:10;;;;;;;3.80;1.70;;;;;;;31.26;31.35;101820.81;4880580;28;122558;-80
2022/08/12 12:40:38;;;;;;;4.57;1.60;;;;;;;31.25;31.11;101827.06;4861175;28;122381;-79
2022/08/12 12:43:04;;;;;;;3.25;1.80;;;;;;;31.19;31.09;101813.06;4847806;28;125222;-79
2022/08/12 12:45:32;;;;;;;2.58;1.60;;;;;;;31.19;32.28;101817.97;4879585;28;123742;-79
2022/08/12 12:47:58;;;;;;;3.50;1.58;;;;;;;31.19;31.39;101821.56;4878823;28;122608;-79
2022/08/12 12:50:34;;;;;;;2.53;1.50;;;;;;;31.18;31.01;101819.31;4870541;28;124452;-80
2022/08/12 12:53:00;;;;;;;2.47;1.60;;;;;;;31.12;29.50;101808.16;4882892;28;124931;-80
2022/08/12 12:55:26;;;;;;;2.65;1.55;;;;;;;31.13;28.89;101818.16;4865399;28;122564;-79
2022/08/12 12:57:53;;;;;;;4.15;1.63;;;;;;;31.14;29.81;101814.75;4863215;28;125700;-79
2022/08/12 13:00:21;;;;;;;3.37;1.50;;;;;;;31.20;30.68;101817.41;4879059;28;122740;-79
2022/08/12 13:02:54;;;;;;;2.95;1.40;;;;;;;31.22;29.04;101802.66;4871394;28;123194;-80
2022/08/12 13:05:27;;;;;;;3.70;1.50;;;;;;;31.19;28.77;101801.72;4862185;28;123765;-80
2022/08/12 13:07:56;;;;;;;3.15;1.23;;;;;;;31.22;29.28;101802.66;4885339;28;122736;-79
2022/08/12 13:10:24;;;;;;;3.80;1.48;;;;;;;31.20;27.87;101799.66;4862678;28;124551;-79
2022/08/12 13:12:50;;;;;;;1.23;1.10;;;;;;;31.15;28.88;101796.41;4868331;28;122948;-79
2022/08/12 13:15:16;;;;;;;1.65;1.20;;;;;;;31.12;28.34;101794.72;4871015;28;122627;-80